createdAt,value
2023-04-17T00:00:20.723Z,0.40
2023-04-17T00:03:22.548Z,0.40
2023-04-17T00:06:24.788Z,0.30
2023-04-17T00:09:26.440Z,0.50
2023-04-17T00:12:27.999Z,0.32
2023-04-17T00:15:29.710Z,0.40
2023-04-17T00:18:31.339Z,0.30
2023-04-17T00:21:32.975Z,0.30
2023-04-17T00:24:34.525Z,0.30
2023-04-17T00:27:36.114Z,0.32
2023-04-17T00:30:37.749Z,0.40
2023-04-17T00:33:39.310Z,0.40
2023-04-17T00:36:40.831Z,0.30
2023-04-17T00:39:42.534Z,0.40
2023-04-17T00:42:45.664Z,0.30
2023-04-17T00:45:50.476Z,0.32
2023-04-17T00:48:52.220Z,0.35
2023-04-17T00:51:53.892Z,0.40
2023-04-17T00:54:56.251Z,0.40
2023-04-17T00:57:58.477Z,0.40
2023-04-17T01:01:00.495Z,0.40
2023-04-17T01:04:05.303Z,0.50
2023-04-17T01:07:07.363Z,0.30
2023-04-17T01:10:09.879Z,1.13
2023-04-17T01:13:11.591Z,0.43
2023-04-17T01:16:13.688Z,0.45
2023-04-17T01:19:16.160Z,0.52
2023-04-17T01:22:18.153Z,0.52
2023-04-17T01:25:19.977Z,0.40
2023-04-17T01:28:21.553Z,0.40
2023-04-17T01:31:24.053Z,0.40
2023-04-17T01:34:25.705Z,0.32
2023-04-17T01:37:27.549Z,0.30
2023-04-17T01:40:29.121Z,0.38
2023-04-17T01:43:30.647Z,0.30
2023-04-17T01:46:32.246Z,0.30
2023-04-17T01:49:33.970Z,0.40
2023-04-17T01:52:36.448Z,0.30
2023-04-17T01:55:38.016Z,0.38
2023-04-17T01:58:40.008Z,0.30
2023-04-17T02:01:41.698Z,0.52
2023-04-17T02:04:43.421Z,0.40
2023-04-17T02:07:45.295Z,0.40
2023-04-17T02:10:46.901Z,0.30
2023-04-17T02:13:48.498Z,0.40
2023-04-17T02:16:50.195Z,1.30
2023-04-17T02:19:51.738Z,0.50
2023-04-17T02:22:53.330Z,0.50
2023-04-17T02:25:54.896Z,0.32
2023-04-17T02:28:56.422Z,0.40
2023-04-17T02:31:57.955Z,0.30
2023-04-17T02:34:59.559Z,0.30
2023-04-17T02:38:01.122Z,0.30
2023-04-17T02:41:02.737Z,0.52
2023-04-17T02:44:04.387Z,0.40
2023-04-17T02:47:06.565Z,0.30
2023-04-17T02:50:09.234Z,0.70
2023-04-17T02:53:11.784Z,0.38
2023-04-17T02:56:13.294Z,0.57
2023-04-17T02:59:14.942Z,0.40
2023-04-17T03:02:21.907Z,0.40
2023-04-17T03:05:23.850Z,0.50
2023-04-17T03:08:25.393Z,0.40
2023-04-17T03:11:27.014Z,0.40
2023-04-17T03:14:28.606Z,0.50
2023-04-17T03:17:30.148Z,0.40
2023-04-17T03:20:31.691Z,0.43
2023-04-17T03:23:33.393Z,0.40
2023-04-17T03:26:34.986Z,0.55
2023-04-17T03:29:36.567Z,0.32
2023-04-17T03:32:38.197Z,0.30
2023-04-17T03:35:39.963Z,0.50
2023-04-17T03:38:42.051Z,0.35
2023-04-17T03:41:43.717Z,0.60
2023-04-17T03:44:45.411Z,0.45
2023-04-17T03:47:47.997Z,0.40
2023-04-17T03:50:51.489Z,0.55
2023-04-17T03:53:53.451Z,0.47
2023-04-17T03:56:55.014Z,0.30
2023-04-17T03:59:56.542Z,0.30
2023-04-17T04:02:58.200Z,0.38
2023-04-17T04:05:59.930Z,0.40
2023-04-17T04:09:01.428Z,0.38
2023-04-17T04:12:03.094Z,0.40
2023-04-17T04:15:05.175Z,0.60
2023-04-17T04:18:06.785Z,0.30
2023-04-17T04:21:08.342Z,0.50
2023-04-17T04:24:10.289Z,0.47
2023-04-17T04:27:12.807Z,0.40
2023-04-17T04:30:14.838Z,0.30
2023-04-17T04:33:22.611Z,0.35
2023-04-17T04:36:25.155Z,0.40
2023-04-17T04:39:26.738Z,0.40
2023-04-17T04:42:29.399Z,0.50
2023-04-17T04:45:30.915Z,1.10
2023-04-17T04:48:32.431Z,0.60
2023-04-17T04:51:35.109Z,0.40
2023-04-17T04:54:36.665Z,0.50
2023-04-17T04:57:38.218Z,0.40
2023-04-17T05:00:39.984Z,0.32
2023-04-17T05:03:41.783Z,0.40
2023-04-17T05:06:43.502Z,0.30
2023-04-17T05:09:45.330Z,0.40
2023-04-17T05:12:47.181Z,0.57
2023-04-17T05:15:48.777Z,0.22
2023-04-17T05:18:50.381Z,0.43
2023-04-17T05:21:52.014Z,0.45
2023-04-17T05:24:53.584Z,0.52
2023-04-17T05:27:55.362Z,0.47
2023-04-17T05:30:57.247Z,0.50
2023-04-17T05:33:58.815Z,0.60
2023-04-17T05:37:00.367Z,0.60
2023-04-17T05:40:02.683Z,0.50
2023-04-17T05:43:11.263Z,0.40
2023-04-17T05:46:12.839Z,0.30
2023-04-17T05:49:14.509Z,0.40
2023-04-17T05:52:16.378Z,0.30
2023-04-17T05:55:20.269Z,0.90
2023-04-17T05:58:24.457Z,0.60
2023-04-17T06:01:26.350Z,0.50
2023-04-17T06:04:29.501Z,0.60
2023-04-17T06:07:31.256Z,0.50
2023-04-17T06:10:33.745Z,0.40
2023-04-17T06:13:35.306Z,0.47
2023-04-17T06:16:36.866Z,0.50
2023-04-17T06:19:38.774Z,0.40
2023-04-17T06:22:41.241Z,0.80
2023-04-17T06:25:42.888Z,0.50
2023-04-17T06:28:44.500Z,0.60
2023-04-17T06:31:46.377Z,0.40
2023-04-17T06:34:59.141Z,0.50
2023-04-17T06:38:01.459Z,0.68
2023-04-17T06:41:03.058Z,0.70
2023-04-17T06:44:04.956Z,0.80
2023-04-17T06:47:06.787Z,0.55
2023-04-17T06:50:09.448Z,0.63
2023-04-17T06:53:11.361Z,0.60
2023-04-17T06:56:12.953Z,0.55
2023-04-17T06:59:14.850Z,0.45
2023-04-17T07:02:16.703Z,0.47
2023-04-17T07:05:18.980Z,0.77
2023-04-17T07:08:22.422Z,0.40
2023-04-17T07:11:24.187Z,0.50
2023-04-17T07:14:25.854Z,0.70
2023-04-17T07:17:27.923Z,0.43
2023-04-17T07:20:29.541Z,0.50
2023-04-17T07:23:31.175Z,0.70
2023-04-17T07:26:32.756Z,0.70
2023-04-17T07:29:34.379Z,1.35
2023-04-17T07:32:36.470Z,0.85
2023-04-17T07:35:38.062Z,0.68
2023-04-17T07:38:41.027Z,1.42
2023-04-17T07:41:42.648Z,1.40
2023-04-17T07:44:44.253Z,1.00
2023-04-17T07:47:46.640Z,0.60
2023-04-17T07:50:49.304Z,0.60
2023-04-17T07:53:50.849Z,0.60
2023-04-17T07:56:52.661Z,0.60
2023-04-17T07:59:54.294Z,0.40
2023-04-17T08:02:56.268Z,0.55
2023-04-17T08:05:58.733Z,0.50
2023-04-17T08:09:02.207Z,0.40
2023-04-17T08:12:03.882Z,0.45
2023-04-17T08:15:05.983Z,0.50
2023-04-17T08:18:09.646Z,0.40
2023-04-17T08:21:11.583Z,0.40
2023-04-17T08:24:13.121Z,0.40
2023-04-17T08:27:15.347Z,0.30
2023-04-17T08:30:19.011Z,0.40
2023-04-17T08:33:21.261Z,0.35
2023-04-17T08:36:23.027Z,0.50
2023-04-17T08:39:24.562Z,0.40
2023-04-17T08:42:26.386Z,0.40
2023-04-17T08:45:28.522Z,0.75
2023-04-17T08:48:31.166Z,0.60
2023-04-17T08:51:32.805Z,0.40
2023-04-17T08:54:35.602Z,0.40
2023-04-17T08:57:57.107Z,0.50
2023-04-17T09:01:09.128Z,0.40
2023-04-17T09:04:10.840Z,0.38
2023-04-17T09:07:13.882Z,0.40
2023-04-17T09:10:16.207Z,0.50
2023-04-17T09:13:20.495Z,0.80
2023-04-17T09:16:24.662Z,0.80
2023-04-17T09:19:26.443Z,0.60
2023-04-17T09:22:27.993Z,0.60
2023-04-17T09:25:29.968Z,0.50
2023-04-17T09:28:35.443Z,0.50
2023-04-17T09:31:39.236Z,0.50
2023-04-17T09:34:41.741Z,0.77
2023-04-17T09:37:58.652Z,0.50
2023-04-17T09:41:00.251Z,0.43
2023-04-17T09:44:05.311Z,0.40
2023-04-17T09:47:08.236Z,0.30
2023-04-17T09:50:10.125Z,0.40
2023-04-17T09:53:11.716Z,0.70
2023-04-17T09:56:13.693Z,0.70
2023-04-17T09:59:16.619Z,0.98
2023-04-17T10:02:19.984Z,0.63
2023-04-17T10:05:31.555Z,0.43
2023-04-17T10:08:33.694Z,0.65
2023-04-17T10:11:38.306Z,0.80
2023-04-17T10:14:44.093Z,0.80
2023-04-17T10:17:47.374Z,0.60
2023-04-17T10:20:50.797Z,0.50
2023-04-17T10:23:53.229Z,0.50
2023-04-17T10:26:55.041Z,0.65
2023-04-17T10:30:01.738Z,0.50
2023-04-17T10:33:22.096Z,1.00
2023-04-17T10:36:39.028Z,0.50
2023-04-17T10:39:52.836Z,0.68
2023-04-17T10:43:23.230Z,0.60
2023-04-17T10:46:26.130Z,0.60
2023-04-17T10:49:27.865Z,0.40
2023-04-17T10:52:32.321Z,0.30
2023-04-17T10:55:33.924Z,0.30
2023-04-17T10:58:39.936Z,0.43
2023-04-17T11:01:51.019Z,0.60
2023-04-17T11:05:06.591Z,0.50
2023-04-17T11:08:09.711Z,0.30
2023-04-17T11:11:15.457Z,0.30
2023-04-17T11:14:20.279Z,0.30
2023-04-17T11:17:22.773Z,0.57
2023-04-17T11:20:25.948Z,0.40
2023-04-17T11:23:33.507Z,0.47
2023-04-17T11:26:47.602Z,0.30
2023-04-17T11:29:49.140Z,0.30
2023-04-17T11:32:52.124Z,0.47
2023-04-17T11:35:54.674Z,0.20
2023-04-17T11:38:57.217Z,0.30
2023-04-17T11:41:59.058Z,0.50
2023-04-17T11:45:07.367Z,0.40
2023-04-17T11:48:13.520Z,0.40
2023-04-17T11:51:18.226Z,0.68
2023-04-17T11:54:27.633Z,0.47
2023-04-17T11:57:29.461Z,0.50
2023-04-17T12:00:31.947Z,0.30
2023-04-17T12:03:37.054Z,0.68
2023-04-17T12:06:38.865Z,0.40
2023-04-17T12:09:41.016Z,0.68
2023-04-17T12:12:45.248Z,0.50
2023-04-17T12:15:46.992Z,0.38
2023-04-17T12:18:48.692Z,0.40
2023-04-17T12:21:52.402Z,0.30
2023-04-17T12:24:53.939Z,0.40
2023-04-17T12:27:57.078Z,0.40
2023-04-17T12:30:58.678Z,0.80
2023-04-17T12:34:00.369Z,0.30
2023-04-17T12:37:02.039Z,0.40
2023-04-17T12:40:04.317Z,0.30
2023-04-17T12:43:06.719Z,0.30
2023-04-17T12:46:08.301Z,0.30
2023-04-17T12:49:10.242Z,0.22
2023-04-17T12:52:11.983Z,0.30
2023-04-17T12:55:13.612Z,0.40
2023-04-17T12:58:15.275Z,0.30
2023-04-17T13:01:16.972Z,0.20
2023-04-17T13:04:19.229Z,0.50
2023-04-17T13:07:21.499Z,0.52
2023-04-17T13:10:23.188Z,0.45
2023-04-17T13:13:24.798Z,0.52
2023-04-17T13:16:27.046Z,0.65
2023-04-17T13:19:28.853Z,0.50
2023-04-17T13:22:30.555Z,0.50
2023-04-17T13:25:32.491Z,0.50
2023-04-17T13:28:34.640Z,0.70
2023-04-17T13:31:37.307Z,0.60
2023-04-17T13:34:39.375Z,0.60
2023-04-17T13:37:41.484Z,0.88
2023-04-17T13:40:43.102Z,0.60
2023-04-17T13:43:45.139Z,0.95
2023-04-17T13:46:47.607Z,0.60
2023-04-17T13:49:49.353Z,0.40
2023-04-17T13:52:51.161Z,0.40
2023-04-17T13:55:52.796Z,0.60
2023-04-17T13:58:55.011Z,0.60
2023-04-17T14:01:56.651Z,0.90
2023-04-17T14:04:58.550Z,0.50
2023-04-17T14:08:00.294Z,0.70
2023-04-17T14:11:01.954Z,0.60
2023-04-17T14:14:03.512Z,0.60
2023-04-17T14:17:05.337Z,0.50
2023-04-17T14:20:07.912Z,0.52
2023-04-17T14:23:09.484Z,0.35
2023-04-17T14:26:12.265Z,0.40
2023-04-17T14:29:14.465Z,1.20
2023-04-17T14:32:16.248Z,0.80
2023-04-17T14:35:17.813Z,0.63
2023-04-17T14:38:20.205Z,0.60
2023-04-17T14:41:21.803Z,0.50
2023-04-17T14:44:23.382Z,0.40
2023-04-17T14:47:25.000Z,0.30
2023-04-17T14:50:26.708Z,0.82
2023-04-17T14:53:28.309Z,0.28
2023-04-17T14:56:29.962Z,0.38
2023-04-17T14:59:31.839Z,0.50
2023-04-17T15:02:38.426Z,0.55
2023-04-17T15:05:40.518Z,0.70
2023-04-17T15:08:42.167Z,0.82
2023-04-17T15:11:43.784Z,0.90
2023-04-17T15:14:45.377Z,1.40
2023-04-17T15:17:47.044Z,1.30
2023-04-17T15:20:48.597Z,1.20
2023-04-17T15:23:50.157Z,0.98
2023-04-17T15:26:51.672Z,1.58
2023-04-17T15:29:53.238Z,0.40
2023-04-17T15:32:54.818Z,0.60
2023-04-17T15:35:58.590Z,0.60
2023-04-17T15:39:01.173Z,0.50
2023-04-17T15:42:03.145Z,0.47
2023-04-17T15:45:05.350Z,0.80
2023-04-17T15:48:07.091Z,0.52
2023-04-17T15:51:09.584Z,0.45
2023-04-17T15:54:12.151Z,0.65
2023-04-17T15:57:13.880Z,0.85
2023-04-17T16:00:16.045Z,0.70
2023-04-17T16:03:17.796Z,0.70
2023-04-17T16:06:20.520Z,1.92
2023-04-17T16:09:24.433Z,1.25
2023-04-17T16:12:28.230Z,0.80
2023-04-17T16:15:30.506Z,1.42
2023-04-17T16:18:32.084Z,1.23
2023-04-17T16:21:33.693Z,0.75
2023-04-17T16:24:35.222Z,1.33
2023-04-17T16:27:37.682Z,1.63
2023-04-17T16:30:39.246Z,1.08
2023-04-17T16:33:40.907Z,0.80
2023-04-17T16:36:45.411Z,0.75
2023-04-17T16:39:47.360Z,1.30
2023-04-17T16:42:48.896Z,1.35
2023-04-17T16:45:50.563Z,1.35
2023-04-17T16:48:52.862Z,1.20
2023-04-17T16:51:54.636Z,1.50
2023-04-17T16:54:56.244Z,1.35
2023-04-17T16:58:00.121Z,1.23
2023-04-17T17:01:01.789Z,1.33
2023-04-17T17:04:03.560Z,1.40
2023-04-17T17:07:06.123Z,1.10
2023-04-17T17:10:08.297Z,0.90
2023-04-17T17:13:09.877Z,0.88
2023-04-17T17:16:11.527Z,0.73
2023-04-17T17:19:14.767Z,1.02
2023-04-17T17:22:16.564Z,1.10
2023-04-17T17:25:18.156Z,1.10
2023-04-17T17:28:19.768Z,1.20
2023-04-17T17:31:21.476Z,2.40
2023-04-17T17:34:26.641Z,1.15
2023-04-17T17:37:28.736Z,1.10
2023-04-17T17:40:30.523Z,1.45
2023-04-17T17:43:32.094Z,1.25
2023-04-17T17:46:35.975Z,1.30
2023-04-17T17:49:37.669Z,0.85
2023-04-17T17:52:39.253Z,1.95
2023-04-17T17:55:40.806Z,1.20
2023-04-17T17:58:42.469Z,1.10
2023-04-17T18:01:44.276Z,2.63
2023-04-17T18:04:46.088Z,1.10
2023-04-17T18:07:47.982Z,0.98
2023-04-17T18:10:49.523Z,1.52
2023-04-17T18:13:51.314Z,1.40
2023-04-17T18:16:53.086Z,1.23
2023-04-17T18:19:54.651Z,1.02
2023-04-17T18:22:56.471Z,1.30
2023-04-17T18:26:02.979Z,1.73
2023-04-17T18:29:04.683Z,1.50
2023-04-17T18:32:06.483Z,1.20
2023-04-17T18:35:08.428Z,1.35
2023-04-17T18:38:10.059Z,0.95
2023-04-17T18:41:11.600Z,1.42
2023-04-17T18:44:13.931Z,1.00
2023-04-17T18:47:15.624Z,0.95
2023-04-17T18:50:17.338Z,1.20
2023-04-17T18:53:18.937Z,0.98
2023-04-17T18:56:20.484Z,1.23
2023-04-17T18:59:22.108Z,1.10
2023-04-17T19:02:23.737Z,1.20
2023-04-17T19:05:27.144Z,0.98
2023-04-17T19:08:28.877Z,0.63
2023-04-17T19:11:31.104Z,0.73
2023-04-17T19:14:33.052Z,2.25
2023-04-17T19:17:35.491Z,0.70
2023-04-17T19:20:38.700Z,0.93
2023-04-17T19:23:41.015Z,0.90
2023-04-17T19:26:43.360Z,0.60
2023-04-17T19:29:46.116Z,0.98
2023-04-17T19:32:48.273Z,0.98
2023-04-17T19:35:50.596Z,0.73
2023-04-17T19:38:54.394Z,0.70
2023-04-17T19:41:55.959Z,0.60
2023-04-17T19:44:57.525Z,1.10
2023-04-17T19:47:59.733Z,0.70
2023-04-17T19:51:04.624Z,0.60
2023-04-17T19:54:06.245Z,0.60
2023-04-17T19:57:07.787Z,0.60
2023-04-17T20:00:10.306Z,1.05
2023-04-17T20:03:12.040Z,0.40
2023-04-17T20:06:14.113Z,0.35
2023-04-17T20:09:16.707Z,0.40
2023-04-17T20:12:20.722Z,0.40
2023-04-17T20:15:22.296Z,0.30
2023-04-17T20:18:24.208Z,0.40
2023-04-17T20:21:26.731Z,0.30
2023-04-17T20:24:28.609Z,0.47
2023-04-17T20:27:30.137Z,0.30
2023-04-17T20:30:31.799Z,0.30
2023-04-17T20:33:33.469Z,0.40
2023-04-17T20:36:35.352Z,0.40
2023-04-17T20:39:36.951Z,0.40
2023-04-17T20:42:38.978Z,0.50
2023-04-17T20:45:40.573Z,0.60
2023-04-17T20:48:42.143Z,0.40
2023-04-17T20:51:44.436Z,0.40
2023-04-17T20:54:46.046Z,0.65
2023-04-17T20:57:47.801Z,0.90
2023-04-17T21:01:00.823Z,0.50
2023-04-17T21:04:03.403Z,0.70
2023-04-17T21:07:04.966Z,0.65
2023-04-17T21:10:07.034Z,0.50
2023-04-17T21:13:08.746Z,0.40
2023-04-17T21:16:11.734Z,0.45
2023-04-17T21:19:14.599Z,0.60
2023-04-17T21:22:16.352Z,0.90
2023-04-17T21:25:17.999Z,0.73
2023-04-17T21:28:20.015Z,0.90
2023-04-17T21:31:21.642Z,0.80
2023-04-17T21:34:24.250Z,0.73
2023-04-17T21:37:25.844Z,0.57
2023-04-17T21:40:32.703Z,0.55
2023-04-17T21:43:35.069Z,0.60
2023-04-17T21:46:37.995Z,0.68
2023-04-17T21:49:39.582Z,0.65
2023-04-17T21:52:41.089Z,0.80
2023-04-17T21:55:42.672Z,0.63
2023-04-17T21:58:44.218Z,0.75
2023-04-17T22:01:45.750Z,0.80
2023-04-17T22:04:47.355Z,1.27
2023-04-17T22:07:54.874Z,0.77
2023-04-17T22:10:57.092Z,0.95
2023-04-17T22:13:58.721Z,0.90
2023-04-17T22:17:00.401Z,1.15
2023-04-17T22:20:02.229Z,1.13
2023-04-17T22:23:03.858Z,0.52
2023-04-17T22:26:05.767Z,0.60
2023-04-17T22:29:07.584Z,0.40
2023-04-17T22:32:09.156Z,0.50
2023-04-17T22:35:10.730Z,0.45
2023-04-17T22:38:12.336Z,0.82
2023-04-17T22:41:13.912Z,0.30
2023-04-17T22:44:15.784Z,0.35
2023-04-17T22:47:17.602Z,0.50
2023-04-17T22:50:19.236Z,0.95
2023-04-17T22:53:22.526Z,0.77
2023-04-17T22:56:24.230Z,0.52
2023-04-17T22:59:26.030Z,0.32
2023-04-17T23:02:27.644Z,0.73
2023-04-17T23:05:29.381Z,0.40
2023-04-17T23:08:31.226Z,0.20
2023-04-17T23:11:33.070Z,0.32
2023-04-17T23:14:34.670Z,0.30
2023-04-17T23:17:36.280Z,0.40
2023-04-17T23:20:37.855Z,0.30
2023-04-17T23:23:39.395Z,0.30
2023-04-17T23:26:41.872Z,0.38
2023-04-17T23:29:43.484Z,0.65
2023-04-17T23:32:45.170Z,0.55
2023-04-17T23:35:46.740Z,0.88
2023-04-17T23:38:48.350Z,0.52
2023-04-17T23:41:50.444Z,0.47
2023-04-17T23:44:52.040Z,0.60
2023-04-17T23:47:53.704Z,0.50
2023-04-17T23:50:55.779Z,0.60
2023-04-17T23:53:59.571Z,0.55
2023-04-17T23:57:01.275Z,0.52
